Terminal Aerodrome Forecast
Issued by NWS

Home | Current Version | Previous Version | Graphics & Text | Print | Product List | Glossary On
Versions: 1 2 3 4 5 6 7 8 9 10 11 12 13 14 15 16 17 18 19 20 21
000
FTUS43 KMPX 240500
TAFAXN
TAF
KAXN 240523Z 2406/2506 08004KT P6SM SKC
     FM240800 15004KT P6SM SCT250
     FM241600 16010G18KT P6SM SCT100 BKN200
     FM250000 16011KT P6SM BKN100=

USA.gov is the U.S. government's official web portal to all federal, state and local government web resources and services.